This is the latest recevied weather packets stored in our database for station/object W1REE. If no packets are shown the sender has not sent any weather packets the latest 10 day(s).
| Time | Temp. | Humidity | Pressure | Rain* | Wind** | Luminosity | Snow |
|---|---|---|---|---|---|---|---|
| 1777944739 | 10.56° C | 61% | 1012.7 hPa | 0 mm | - | 16 W/m² | - |
| 1777944438 | 10.56° C | 62% | 1012.5 hPa | 0 mm | - | 16 W/m² | - |
| 1777944135 | 10.56° C | 64% | 1012.9 hPa | 0 mm | - | 17 W/m² | - |
| 1777943830 | 11.11° C | 62% | 1013 hPa | 0 mm | - | 14 W/m² | - |
| 1777943528 | 12.22° C | 55% | 1013 hPa | 0 mm | - | 13 W/m² | - |
| 1777943223 | 12.78° C | 49% | 1012.5 hPa | 0 mm | - | 13 W/m² | - |
| 1777942920 | 13.89° C | 46% | 1012.3 hPa | 0 mm | - | 9 W/m² | - |
| 1777942616 | 14.44° C | 39% | 1012.2 hPa | 0 mm | - | 15 W/m² | - |
| 1777942313 | 15° C | 38% | 1011.8 hPa | 0 mm | - | 16 W/m² | - |
| 1777942010 | 15.56° C | 36% | 1011.7 hPa | 0 mm | - | 14 W/m² | - |
| 1777941707 | 16.11° C | 34% | 1011 hPa | 0 mm | - | 30 W/m² | - |
| 1777941404 | 16.67° C | 33% | 1011.2 hPa | 0 mm | - | 41 W/m² | - |
| 1777941102 | 16.67° C | 31% | 1011.1 hPa | 0 mm | - | 34 W/m² | - |
| 1777940797 | 16.67° C | 31% | 1010.9 hPa | 0 mm | - | 35 W/m² | - |
| 1777940496 | 16.67° C | 34% | 1011.1 hPa | 0 mm | - | 54 W/m² | - |
| 1777940193 | 17.22° C | 31% | 1011 hPa | 0 mm | - | 65 W/m² | - |
| 1777939890 | 17.22° C | 29% | 1010.7 hPa | 0 mm | - | 56 W/m² | - |
| 1777939587 | 17.78° C | 29% | 1010.7 hPa | 0 mm | - | 37 W/m² | - |
| 1777939285 | 17.78° C | 28% | 1010.7 hPa | 0 mm | - | 48 W/m² | - |
| 1777938981 | 17.78° C | 28% | 1010.4 hPa | 0 mm | - | 50 W/m² | - |
| 1777938678 | 17.78° C | 28% | 1010.4 hPa | 0 mm | - | 56 W/m² | - |
| 1777938375 | 17.78° C | 28% | 1010.3 hPa | 0 mm | - | 52 W/m² | - |
| 1777938072 | 17.78° C | 28% | 1009.8 hPa | 0 mm | - | 89 W/m² | - |
| 1777937767 | 17.78° C | 32% | 1010 hPa | 0 mm | - | 90 W/m² | - |
| 1777937464 | 17.78° C | 33% | 1010 hPa | 0 mm | - | 136 W/m² | - |
* Rain latest hour (hover to see other rain measurements)
** Current wind speed in m/s (hover to see current wind gust speed)